CES5646 ZJHK-ZSQD
Flight info
| Callsign | CES5646 |
|---|---|
| Flight time | N/A |
| Altitude | 35100 |
| Route | K0924S1070 AGTEL9XD AGTEL W71 LH DCT GYA A599 POU G471 XEBUL DCT ODOPI DCT AKAVO DCT DST W117 BEGMO W13 TOGUG/K0917S1100 W13 HSN/K0919S1070 W13 PINOT/K0913S1100 B221 IDVEL IDV81A |
| Aircraft | B77W/H-SDE1E2E3FGHIJ2J3J4J5M1RWXY/LB1D1 |
Departure
| Time | 2026-05-04 14:53 |
|---|---|
| Airport | Haikou Meilan International Airport (ZJHK) |
Arrival
| Time | N/A |
|---|---|
| Airport | Qingdao Jiaodong International Airport (ZSQD) |
| Time | Latitude | Longitude | Altitude | Speed | Heading |
|---|---|---|---|---|---|
| 2026-05-04 14:40 | 19.94869 | 110.45840 | 63 ft | 0 kts | 179° |
| 2026-05-04 14:43 | 19.94881 | 110.45840 | 54 ft | 4 kts | 181° |
| 2026-05-04 14:43 | 19.94907 | 110.45844 | 55 ft | 4 kts | 206° |
| 2026-05-04 14:44 | 19.94928 | 110.45861 | 54 ft | 4 kts | 233° |
| 2026-05-04 14:44 | 19.94939 | 110.45879 | 54 ft | 1 kts | 235° |
| 2026-05-04 14:44 | 19.94941 | 110.45882 | 54 ft | 0 kts | 235° |
| 2026-05-04 14:47 | 19.94940 | 110.45881 | 54 ft | 0 kts | 235° |
| 2026-05-04 14:47 | 19.94937 | 110.45865 | 54 ft | 5 kts | 267° |
| 2026-05-04 14:47 | 19.94962 | 110.45805 | 56 ft | 14 kts | 284° |
| 2026-05-04 14:47 | 19.94964 | 110.45670 | 55 ft | 19 kts | 269° |
| 2026-05-04 14:48 | 19.95021 | 110.45568 | 54 ft | 17 kts | 317° |
| 2026-05-04 14:48 | 19.95061 | 110.45451 | 59 ft | 18 kts | 270° |
| 2026-05-04 14:48 | 19.95062 | 110.45315 | 60 ft | 18 kts | 269° |
| 2026-05-04 14:48 | 19.95093 | 110.45245 | 58 ft | 12 kts | 343° |
| 2026-05-04 14:49 | 19.95173 | 110.45240 | 50 ft | 12 kts | 347° |
| 2026-05-04 14:49 | 19.95202 | 110.45165 | 58 ft | 12 kts | 271° |
| 2026-05-04 14:49 | 19.95203 | 110.45075 | 57 ft | 12 kts | 270° |
| 2026-05-04 14:49 | 19.95202 | 110.44984 | 57 ft | 12 kts | 269° |
| 2026-05-04 14:50 | 19.95202 | 110.44895 | 57 ft | 12 kts | 270° |
| 2026-05-04 14:50 | 19.95207 | 110.44841 | 57 ft | 7 kts | 296° |
| 2026-05-04 14:50 | 19.95242 | 110.44823 | 49 ft | 0 kts | 355° |
| 2026-05-04 14:51 | 19.95249 | 110.44823 | 51 ft | 2 kts | 355° |
| 2026-05-04 14:51 | 19.95284 | 110.44821 | 48 ft | 8 kts | 2° |
| 2026-05-04 14:51 | 19.95347 | 110.44849 | 50 ft | 12 kts | 38° |
| 2026-05-04 14:52 | 19.95371 | 110.44921 | 53 ft | 0 kts | 89° |
| 2026-05-04 14:52 | 19.95372 | 110.44934 | 52 ft | 12 kts | 89° |
| 2026-05-04 14:52 | 19.95375 | 110.45302 | 58 ft | 91 kts | 89° |
| 2026-05-04 14:52 | 19.95378 | 110.46249 | 61 ft | 161 kts | 89° |
| 2026-05-04 14:53 | 19.95370 | 110.47546 | 461 ft | 178 kts | 89° |
| 2026-05-04 14:53 | 19.95457 | 110.48890 | 1097 ft | 187 kts | 76° |
| 2026-05-04 14:53 | 19.96187 | 110.50079 | 1450 ft | 216 kts | 34° |
| 2026-05-04 14:53 | 19.97715 | 110.50419 | 2001 ft | 234 kts | 351° |
| 2026-05-04 14:54 | 19.99298 | 110.49806 | 2476 ft | 254 kts | 337° |
| 2026-05-04 14:54 | 20.00965 | 110.49005 | 3052 ft | 269 kts | 336° |
| 2026-05-04 14:54 | 20.02670 | 110.48181 | 3855 ft | 274 kts | 335° |
| 2026-05-04 14:54 | 20.04424 | 110.47344 | 4788 ft | 277 kts | 335° |
| 2026-05-04 14:55 | 20.06161 | 110.46527 | 5752 ft | 276 kts | 335° |
| 2026-05-04 14:55 | 20.07941 | 110.45697 | 6575 ft | 279 kts | 335° |
| 2026-05-04 14:55 | 20.09714 | 110.44882 | 7408 ft | 281 kts | 335° |
| 2026-05-04 14:55 | 20.11535 | 110.44053 | 8230 ft | 283 kts | 334° |
| 2026-05-04 14:56 | 20.13361 | 110.43224 | 9044 ft | 287 kts | 334° |
| 2026-05-04 14:56 | 20.15196 | 110.42392 | 9846 ft | 290 kts | 334° |
| 2026-05-04 14:56 | 20.17078 | 110.41540 | 10488 ft | 299 kts | 335° |
| 2026-05-04 14:56 | 20.19047 | 110.40647 | 10723 ft | 325 kts | 335° |
| 2026-05-04 14:57 | 20.21211 | 110.39667 | 10923 ft | 351 kts | 335° |
| 2026-05-04 14:57 | 20.23536 | 110.38615 | 11228 ft | 371 kts | 335° |
| 2026-05-04 14:57 | 20.25963 | 110.37539 | 11913 ft | 381 kts | 337° |
| 2026-05-04 14:57 | 20.28490 | 110.36601 | 12816 ft | 386 kts | 340° |
| 2026-05-04 14:58 | 20.31036 | 110.35752 | 13782 ft | 389 kts | 340° |
| 2026-05-04 14:58 | 20.33649 | 110.34894 | 14599 ft | 393 kts | 340° |
| 2026-05-04 14:58 | 20.36262 | 110.34023 | 15317 ft | 399 kts | 340° |
| 2026-05-04 14:58 | 20.38060 | 110.33415 | 15812 ft | 404 kts | 339° |
| 2026-05-04 14:59 | 20.41622 | 110.32194 | 16752 ft | 411 kts | 339° |
| 2026-05-04 14:59 | 20.44365 | 110.31247 | 17500 ft | 416 kts | 339° |
| 2026-05-04 14:59 | 20.49972 | 110.29401 | 18794 ft | 428 kts | 346° |
| 2026-05-04 15:00 | 20.52979 | 110.29255 | 19297 ft | 437 kts | 0° |
| 2026-05-04 15:00 | 20.56051 | 110.29523 | 19835 ft | 444 kts | 1° |
| 2026-05-04 15:00 | 20.59115 | 110.29803 | 20470 ft | 447 kts | 1° |
| 2026-05-04 15:01 | 20.65341 | 110.30313 | 21769 ft | 453 kts | 0° |
| 2026-05-04 15:01 | 20.68508 | 110.30541 | 22362 ft | 457 kts | 360° |
| 2026-05-04 15:01 | 20.71703 | 110.30759 | 22932 ft | 461 kts | 359° |
| 2026-05-04 15:01 | 20.74934 | 110.30975 | 23489 ft | 465 kts | 359° |
| 2026-05-04 15:02 | 20.78139 | 110.31188 | 23977 ft | 469 kts | 359° |
| 2026-05-04 15:02 | 20.81415 | 110.31406 | 24459 ft | 472 kts | 359° |
| 2026-05-04 15:02 | 20.84715 | 110.31628 | 24936 ft | 475 kts | 359° |
| 2026-05-04 15:02 | 20.87996 | 110.31849 | 25375 ft | 478 kts | 359° |
| 2026-05-04 15:03 | 20.91336 | 110.32074 | 25828 ft | 482 kts | 359° |
| 2026-05-04 15:03 | 20.94708 | 110.32302 | 26270 ft | 485 kts | 359° |
| 2026-05-04 15:03 | 20.98046 | 110.32527 | 26686 ft | 488 kts | 359° |
| 2026-05-04 15:03 | 21.01472 | 110.32738 | 27118 ft | 491 kts | 358° |
| 2026-05-04 15:04 | 21.04879 | 110.32899 | 27532 ft | 493 kts | 358° |
| 2026-05-04 15:04 | 21.08331 | 110.33064 | 27924 ft | 495 kts | 359° |
| 2026-05-04 15:04 | 21.11769 | 110.33729 | 28179 ft | 510 kts | 14° |
| 2026-05-04 15:04 | 21.14992 | 110.35299 | 28501 ft | 522 kts | 27° |
| 2026-05-04 15:05 | 21.17888 | 110.37713 | 28881 ft | 530 kts | 41° |
| 2026-05-04 15:05 | 21.19593 | 110.39601 | 29039 ft | 534 kts | 43° |
| 2026-05-04 15:05 | 21.23015 | 110.43476 | 29328 ft | 541 kts | 43° |
| 2026-05-04 15:05 | 21.25623 | 110.46424 | 29660 ft | 543 kts | 43° |
| 2026-05-04 15:06 | 21.27367 | 110.48380 | 29889 ft | 544 kts | 43° |
| 2026-05-04 15:06 | 21.30863 | 110.52263 | 30294 ft | 546 kts | 42° |
| 2026-05-04 15:06 | 21.32632 | 110.54211 | 30515 ft | 546 kts | 42° |
| 2026-05-04 15:07 | 21.38822 | 110.60993 | 31533 ft | 540 kts | 42° |
| 2026-05-04 15:07 | 21.41421 | 110.63836 | 31972 ft | 539 kts | 42° |
| 2026-05-04 15:07 | 21.43179 | 110.65761 | 32253 ft | 538 kts | 42° |
| 2026-05-04 15:07 | 21.45431 | 110.68229 | 32625 ft | 537 kts | 41° |
| 2026-05-04 15:08 | 21.47639 | 110.70651 | 32909 ft | 537 kts | 41° |